Playa Del Carmen, ROO, Mexico
Current Conditions -  °F | °C
As of 11:40 AM on Saturday 25 Oct 2014 (Local Time) from MMCZ Reporting Station
Broken Clouds Broken Clouds  
Wind Chill: 79°   Ceiling: 25000
Heat Index: 81°   Visibility: 8mi
Dew Point: 68°   Wind: 16mph
Humidity: 69%   Direction: 360°N
Pressure: 29.98"   Gusts: NA
Location:  20.62°N, 87.07°W
Report Text: MMCZ 251640Z 36014KT 8SM FEW015 SCT080 BKN250 26/20 A2998 RMK 8/538 RTS
Loading
Personal Weather Stations






























Interactive Weather Map
Tropical Storm Tracking
New forecast layout! Learn more

10-Day Weather Forecast

Advertisements
Track Severe Weather on mobile